M/V Lauren Marie — WBY5971 — position and weather

sailwx.info

Track history (hours):
 
Tides and Currents Weather Stations Pressure Air Temp Water Temp Dewpoint Dewpoint Depression Visibility Wind Speed Wind Dir Waves Ship Positions

M/V Lauren Marie

Owner: CROSBY INSHORE MARINE SERVICE INC, GOLDEN MEADOW, LA. More information available from US FCC via Universal Licensing System and Coast Guard Vessel Documentation Center.

Last reported at 2018-Jan-12 12:09 UTC. Time now 2018-Jan-20 02:52 UTC.
Position N 29°37' W 090°21'.

; draft 25.5 m.

Type: Towing. MMSI: 367028690.

Date/timePositionNaut miles runAvg speedWind from/ knotsBaromVisibWave heightAir tempDewpointWater temp
2018-Jan-12 12:09N 29°37' W 090°21'2 5.8
2018-Jan-12 11:49N 29°35' W 090°22'3 6.6
2018-Jan-12 11:26N 29°33' W 090°24'3 6.6
2018-Jan-12 10:58N 29°33' W 090°27'3 6.7
2018-Jan-12 10:30N 29°34' W 090°31'3 6.4
2018-Jan-12 10:00N 29°34' W 090°34'3 6.4
2018-Jan-12 09:30N 29°35' W 090°38'2 3.6
2018-Jan-12 09:00N 29°36' W 090°40'0 0.0
2018-Jan-12 08:28N 29°36' W 090°40'0 0.0
2018-Jan-12 07:57N 29°36' W 090°40'0 0.0
2018-Jan-12 07:30N 29°36' W 090°40'0 0.0
2018-Jan-12 06:58N 29°36' W 090°40'0 0.0
2018-Jan-12 06:30N 29°36' W 090°40'2 3.9
2018-Jan-12 06:00N 29°37' W 090°42'3 5.0
2018-Jan-12 05:30N 29°35' W 090°43'2 4.5
2018-Jan-12 05:00N 29°33' W 090°45'3 5.8
2018-Jan-12 04:30N 29°32' W 090°48'4 7.1
2018-Jan-12 03:58N 29°32' W 090°53'3 4.6
2018-Jan-12 03:18N 29°34' W 090°56'58 1.6
2018-Jan-10 15:31N 29°50' W 091°60'0 6.2
2018-Jan-10 15:28N 29°50' W 092°00'2 5.1
2018-Jan-10 15:00N 29°49' W 092°03'2 3.8
2018-Jan-10 14:30N 29°48' W 092°05'3 5.7
2018-Jan-10 14:00N 29°47' W 092°08'3 5.8
2018-Jan-10 13:30N 29°47' W 092°11'3 5.6
2018-Jan-10 13:00N 29°48' W 092°14'2 3.4
2018-Jan-10 12:30N 29°48' W 092°16'0 0.0
2018-Jan-10 12:00N 29°48' W 092°16'0 0.0
2018-Jan-10 11:28N 29°48' W 092°16'0 0.0
2018-Jan-10 11:01N 29°48' W 092°16'0 0.0
2018-Jan-10 10:29N 29°48' W 092°16'0 0.0
2018-Jan-10 10:00N 29°48' W 092°16'0 0.0
2018-Jan-10 09:30N 29°48' W 092°16'0 0.0
2018-Jan-10 08:59N 29°48' W 092°16'0 0.0
2018-Jan-10 08:31N 29°48' W 092°16'1 1.4
2018-Jan-10 08:00N 29°49' W 092°17'2 3.2
2018-Jan-10 07:31N 29°50' W 092°18'3 3.9
2018-Jan-10 06:48N 29°51' W 092°21'36 5.2
2018-Jan-09 23:59N 29°56' W 093°02'3 6.3
2018-Jan-09 23:31N 29°56' W 093°05'3 5.9
2018-Jan-09 23:00N 29°56' W 093°08'3 5.9
2018-Jan-09 22:31N 29°58' W 093°11'3 6.4
2018-Jan-09 22:00N 30°00' W 093°14'3 5.8
2018-Jan-09 21:31N 30°02' W 093°16'3 6.2
2018-Jan-09 21:00N 30°05' W 093°17'1 1.6
2018-Jan-09 20:31N 30°06' W 093°18'2 3.4
2018-Jan-09 20:00N 30°05' W 093°20'1 2.8
2018-Jan-09 19:30N 30°04' W 093°21'2 4.6
2018-Jan-09 19:01N 30°04' W 093°24'3 6.4
2018-Jan-09 18:30N 30°04' W 093°27'3 6.5
2018-Jan-09 18:00N 30°04' W 093°31'3 6.4
2018-Jan-09 17:30N 30°04' W 093°35'3 6.2
2018-Jan-09 17:00N 30°04' W 093°38'  
Track history (hours):
 
Tides and Currents Weather Stations Pressure Air Temp Water Temp Dewpoint Dewpoint Depression Visibility Wind Speed Wind Dir Waves Ship Positions

M/V Lauren Marie

Owner: CROSBY INSHORE MARINE SERVICE INC, GOLDEN MEADOW, LA. More information available from US FCC via Universal Licensing System and Coast Guard Vessel Documentation Center.

Last reported at 2018-Jan-12 12:09 UTC. Time now 2018-Jan-20 02:52 UTC.
Position N 29°37' W 090°21'.

; draft 25.5 m.

Type: Towing. MMSI: 367028690.

Date/timePositionNaut miles runAvg speedWind from/ knotsBaromVisibWave heightAir tempDewpointWater temp
2018-Jan-12 12:09N 29°37' W 090°21'2 5.8
2018-Jan-12 11:49N 29°35' W 090°22'3 6.6
2018-Jan-12 11:26N 29°33' W 090°24'3 6.6
2018-Jan-12 10:58N 29°33' W 090°27'3 6.7
2018-Jan-12 10:30N 29°34' W 090°31'3 6.4
2018-Jan-12 10:00N 29°34' W 090°34'3 6.4
2018-Jan-12 09:30N 29°35' W 090°38'2 3.6
2018-Jan-12 09:00N 29°36' W 090°40'0 0.0
2018-Jan-12 08:28N 29°36' W 090°40'0 0.0
2018-Jan-12 07:57N 29°36' W 090°40'0 0.0
2018-Jan-12 07:30N 29°36' W 090°40'0 0.0
2018-Jan-12 06:58N 29°36' W 090°40'0 0.0
2018-Jan-12 06:30N 29°36' W 090°40'2 3.9
2018-Jan-12 06:00N 29°37' W 090°42'3 5.0
2018-Jan-12 05:30N 29°35' W 090°43'2 4.5
2018-Jan-12 05:00N 29°33' W 090°45'3 5.8
2018-Jan-12 04:30N 29°32' W 090°48'4 7.1
2018-Jan-12 03:58N 29°32' W 090°53'3 4.6
2018-Jan-12 03:18N 29°34' W 090°56'58 1.6
2018-Jan-10 15:31N 29°50' W 091°60'0 6.2
2018-Jan-10 15:28N 29°50' W 092°00'2 5.1
2018-Jan-10 15:00N 29°49' W 092°03'2 3.8
2018-Jan-10 14:30N 29°48' W 092°05'3 5.7
2018-Jan-10 14:00N 29°47' W 092°08'3 5.8
2018-Jan-10 13:30N 29°47' W 092°11'3 5.6
2018-Jan-10 13:00N 29°48' W 092°14'2 3.4
2018-Jan-10 12:30N 29°48' W 092°16'0 0.0
2018-Jan-10 12:00N 29°48' W 092°16'0 0.0
2018-Jan-10 11:28N 29°48' W 092°16'0 0.0
2018-Jan-10 11:01N 29°48' W 092°16'0 0.0
2018-Jan-10 10:29N 29°48' W 092°16'0 0.0
2018-Jan-10 10:00N 29°48' W 092°16'0 0.0
2018-Jan-10 09:30N 29°48' W 092°16'0 0.0
2018-Jan-10 08:59N 29°48' W 092°16'0 0.0
2018-Jan-10 08:31N 29°48' W 092°16'1 1.4
2018-Jan-10 08:00N 29°49' W 092°17'2 3.2
2018-Jan-10 07:31N 29°50' W 092°18'3 3.9
2018-Jan-10 06:48N 29°51' W 092°21'36 5.2
2018-Jan-09 23:59N 29°56' W 093°02'3 6.3
2018-Jan-09 23:31N 29°56' W 093°05'3 5.9
2018-Jan-09 23:00N 29°56' W 093°08'3 5.9
2018-Jan-09 22:31N 29°58' W 093°11'3 6.4
2018-Jan-09 22:00N 30°00' W 093°14'3 5.8
2018-Jan-09 21:31N 30°02' W 093°16'3 6.2
2018-Jan-09 21:00N 30°05' W 093°17'1 1.6
2018-Jan-09 20:31N 30°06' W 093°18'2 3.4
2018-Jan-09 20:00N 30°05' W 093°20'1 2.8
2018-Jan-09 19:30N 30°04' W 093°21'2 4.6
2018-Jan-09 19:01N 30°04' W 093°24'3 6.4
2018-Jan-09 18:30N 30°04' W 093°27'3 6.5
2018-Jan-09 18:00N 30°04' W 093°31'3 6.4
2018-Jan-09 17:30N 30°04' W 093°35'3 6.2
2018-Jan-09 17:00N 30°04' W 093°38'  

Dump ship's entire track history